Time;durP1;ratioP1;P1;durP2;ratioP2;P2;SDS_P1;SDS_P2;PMS_P1;PMS_P2;Temp;Humidity;BMP_temperature;BMP_pressure;BME280_temperature;BME280_humidity;BME280_pressure;Samples;Min_cycle;Max_cycle;Signal;HPM_P1;HPM_P2
2022/03/20 00:00:54;;;;;;;;;;;;;;;18.85;54.45;103509.09;4969329;28;2016;-36
2022/03/20 00:03:21;;;;;;;;;;;;;;;18.71;54.88;103498.06;4966936;28;1863;-36
2022/03/20 00:05:48;;;;;;;;;;;;;;;18.68;55.05;103491.91;4966622;28;1809;-36
2022/03/20 00:08:15;;;;;;;;;;;;;;;18.63;54.93;103491.22;4970564;28;1903;-36
2022/03/20 00:10:42;;;;;;;;;;;;;;;18.55;55.11;103479.97;4973984;28;1887;-36
2022/03/20 00:13:10;;;;;;;;;;;;;;;18.57;55.19;103483.47;4967469;28;2087;-36
2022/03/20 00:15:40;;;;;;;;;;;;;;;18.57;54.84;103483.47;4969157;28;1735;-36
2022/03/20 00:18:07;;;;;;;;;;;;;;;18.60;54.43;103504.78;4970709;28;1813;-36
2022/03/20 00:20:33;;;;;;;;;;;;;;;18.60;53.94;103477.97;4966325;28;1809;-36
2022/03/20 00:23:00;;;;;;;;;;;;;;;18.60;54.22;103477.97;4962834;28;1144;-36
2022/03/20 00:25:27;;;;;;;;;;;;;;;18.62;54.83;103481.47;4967161;28;1844;-36
2022/03/20 00:27:53;;;;;;;;;;;;;;;18.62;54.79;103476.09;4966075;28;1971;-36
2022/03/20 00:30:21;;;;;;;;;;;;;;;18.62;54.37;103486.81;4968978;28;1774;-36
2022/03/20 00:32:47;;;;;;;;;;;;;;;18.63;55.17;103477.81;4970051;28;2492;-37
2022/03/20 00:35:14;;;;;;;;;;;;;;;18.63;54.72;103475.16;4974351;28;1835;-36
2022/03/20 00:37:41;;;;;;;;;;;;;;;18.60;54.64;103485.13;4965605;28;1063;-37
2022/03/20 00:40:08;;;;;;;;;;;;;;;18.51;55.16;103462.28;4964518;28;2010;-36
2022/03/20 00:42:34;;;;;;;;;;;;;;;18.46;55.18;103470.53;4965829;28;1683;-36
2022/03/20 00:45:01;;;;;;;;;;;;;;;18.46;54.96;103477.69;4969965;28;1833;-36
2022/03/20 00:47:29;;;;;;;;;;;;;;;18.43;54.86;103461.75;4966706;28;1906;-36
2022/03/20 00:49:55;;;;;;;;;;;;;;;18.35;55.26;103466.56;4967581;28;1772;-37
2022/03/20 00:52:21;;;;;;;;;;;;;;;18.33;55.07;103477.34;4965381;28;1153;-36
2022/03/20 00:54:48;;;;;;;;;;;;;;;18.28;55.27;103463.25;4962123;28;1878;-36
2022/03/20 00:57:14;;;;;;;;;;;;;;;18.20;55.35;103468.06;4963581;28;1802;-37
2022/03/20 00:59:41;;;;;;;;;;;;;;;18.20;55.60;103466.25;4975798;28;1970;-36
2022/03/20 01:02:07;;;;;;;;;;;;;;;18.14;55.75;103463.84;4969662;28;1967;-37
2022/03/20 01:04:35;;;;;;;;;;;;;;;18.12;55.58;103465.72;4965048;28;1851;-36
2022/03/20 01:07:02;;;;;;;;;;;;;;;18.14;55.73;103466.53;4968314;28;1502;-36
2022/03/20 01:09:28;;;;;;;;;;;;;;;18.10;55.61;103456.88;4966480;28;1930;-36
2022/03/20 01:11:55;;;;;;;;;;;;;;;18.05;55.45;103459.75;4967207;28;1852;-36
2022/03/20 01:14:22;;;;;;;;;;;;;;;18.07;55.49;103475.75;4971480;28;1684;-37
2022/03/20 01:16:48;;;;;;;;;;;;;;;18.05;55.01;103469.59;4965435;28;1751;-36
2022/03/20 01:19:15;;;;;;;;;;;;;;;18.05;54.87;103466.91;4966166;28;1484;-36
2022/03/20 01:21:43;;;;;;;;;;;;;;;18.23;55.13;103482.22;4964511;28;1918;-36
2022/03/20 01:24:09;;;;;;;;;;;;;;;18.39;54.26;103470.84;4973064;28;1965;-36
2022/03/20 01:26:36;;;;;;;;;;;;;;;18.45;54.10;103468.78;4966529;28;1819;-36
2022/03/20 01:29:04;;;;;;;;;;;;;;;18.54;53.91;103462.13;4969552;28;1910;-36
2022/03/20 01:31:31;;;;;;;;;;;;;;;18.53;54.65;103481.00;4964661;28;1948;-37
2022/03/20 01:33:58;;;;;;;;;;;;;;;18.55;54.69;103474.63;4967156;28;1067;-37
2022/03/20 01:36:24;;;;;;;;;;;;;;;18.53;54.83;103473.81;4968939;28;1821;-36
2022/03/20 01:38:53;;;;;;;;;;;;;;;18.55;54.34;103479.09;4960582;28;1918;-36
2022/03/20 01:41:19;;;;;;;;;;;;;;;18.52;54.37;103474.72;4969683;28;1799;-37
2022/03/20 01:43:49;;;;;;;;;;;;;;;18.52;54.60;103480.09;4970152;28;1660;-36
2022/03/20 01:46:15;;;;;;;;;;;;;;;18.50;54.64;103471.25;4970322;28;1364;-36
2022/03/20 01:48:42;;;;;;;;;;;;;;;18.48;54.69;103468.66;4963444;28;1903;-36
2022/03/20 01:51:10;;;;;;;;;;;;;;;18.45;54.77;103471.47;4964411;28;1588;-36
2022/03/20 01:53:37;;;;;;;;;;;;;;;18.41;53.78;103467.16;4973527;28;1624;-36
2022/03/20 01:56:05;;;;;;;;;;;;;;;18.36;54.29;103462.94;4966569;28;1074;-36
2022/03/20 01:58:32;;;;;;;;;;;;;;;18.39;54.19;103484.25;4970462;28;1956;-37
2022/03/20 02:00:58;;;;;;;;;;;;;;;18.31;53.53;103478.34;4969213;28;1902;-37
2022/03/20 02:03:25;;;;;;;;;;;;;;;18.24;53.28;103483.97;4967624;28;1843;-37
2022/03/20 02:05:52;;;;;;;;;;;;;;;18.21;53.80;103492.13;4968161;28;1811;-37
2022/03/20 02:08:24;;;;;;;;;;;;;;;18.16;53.92;103479.84;4963057;28;1906;-36
2022/03/20 02:10:51;;;;;;;;;;;;;;;18.12;53.61;103476.44;4962547;28;1709;-37
2022/03/20 02:13:20;;;;;;;;;;;;;;;18.06;54.05;103465.97;4971349;28;1726;-38
2022/03/20 02:15:48;;;;;;;;;;;;;;;18.03;53.10;103482.19;4961692;28;1784;-36
2022/03/20 02:18:15;;;;;;;;;;;;;;;18.03;53.37;103482.19;4967912;28;1742;-37
2022/03/20 02:20:45;;;;;;;;;;;;;;;17.98;53.55;103486.84;4963254;28;1507;-37
2022/03/20 02:23:13;;;;;;;;;;;;;;;17.99;53.93;103492.13;4970469;28;1143;-37
2022/03/20 02:25:47;;;;;;;;;;;;;;;17.97;53.24;103487.78;4968222;28;1788;-37
2022/03/20 02:28:13;;;;;;;;;;;;;;;17.96;53.86;103480.66;4969754;28;1979;-36
2022/03/20 02:30:39;;;;;;;;;;;;;;;17.89;53.64;103485.41;4964482;28;1747;-36
2022/03/20 02:33:06;;;;;;;;;;;;;;;18.14;53.69;103487.94;4962485;28;1560;-36
2022/03/20 02:35:33;;;;;;;;;;;;;;;18.39;54.29;103478.91;4967070;28;1847;-36
2022/03/20 02:37:59;;;;;;;;;;;;;;;18.66;53.92;103483.06;4963970;28;1069;-37
2022/03/20 02:40:27;;;;;;;;;;;;;;;18.88;52.83;103482.16;4964505;28;1939;-36
2022/03/20 02:42:54;;;;;;;;;;;;;;;19.13;52.10;103491.75;4963472;28;1692;-36
2022/03/20 02:45:22;;;;;;;;;;;;;;;19.15;52.38;103490.75;4964522;28;1668;-36
2022/03/20 02:47:49;;;;;;;;;;;;;;;19.37;51.97;103497.81;4964188;28;1796;-36
2022/03/20 02:50:17;;;;;;;;;;;;;;;19.40;51.09;103479.75;4963841;28;1980;-36
2022/03/20 02:52:46;;;;;;;;;;;;;;;19.27;52.00;103483.94;4962812;28;973;-36
2022/03/20 02:55:12;;;;;;;;;;;;;;;19.42;51.09;103482.38;4962945;28;1723;-36
2022/03/20 02:57:40;;;;;;;;;;;;;;;19.24;52.13;103484.09;4963809;28;1573;-36
2022/03/20 03:02:49;;;;;;;;;;;;;;;18.93;52.03;103480.13;5048942;22;1525;-35
2022/03/20 03:05:17;;;;;;;;;;;;;;;18.83;52.58;103484.16;5028952;28;1855;-36
2022/03/20 03:11:01;;;;;;;;;;;;;;;18.77;52.75;103485.25;5018444;28;1910;-36
2022/03/20 03:13:35;;;;;;;;;;;;;;;18.64;53.25;103482.25;5023579;28;1480;-36
2022/03/20 03:16:03;;;;;;;;;;;;;;;18.62;53.00;103481.47;5018944;28;1826;-37
2022/03/20 03:18:29;;;;;;;;;;;;;;;18.59;53.07;103476.22;5025727;28;1426;-36
2022/03/20 03:20:57;;;;;;;;;;;;;;;18.58;53.01;103477.19;5021512;28;1475;-36
2022/03/20 03:23:24;;;;;;;;;;;;;;;18.46;53.15;103475.91;5028023;28;1204;-36
2022/03/20 03:25:52;;;;;;;;;;;;;;;18.39;53.52;103481.56;5021871;28;1744;-36
2022/03/20 03:28:21;;;;;;;;;;;;;;;18.36;53.29;103487.06;5021205;28;1906;-36
2022/03/20 03:30:52;;;;;;;;;;;;;;;18.28;53.66;103490.03;5022039;28;1759;-36
2022/03/20 03:33:23;;;;;;;;;;;;;;;18.22;52.53;103488.53;5020043;28;1619;-36
2022/03/20 03:35:53;;;;;;;;;;;;;;;18.23;52.52;103492.94;5019673;28;1900;-36
2022/03/20 03:38:25;;;;;;;;;;;;;;;18.19;52.98;103488.63;5028626;28;946;-36
2022/03/20 03:40:55;;;;;;;;;;;;;;;18.17;51.88;103495.88;5025764;28;1616;-36
2022/03/20 03:43:24;;;;;;;;;;;;;;;18.21;51.59;103502.84;5033258;28;1424;-36
2022/03/20 03:45:54;;;;;;;;;;;;;;;18.17;51.34;103506.56;5028679;28;1590;-36
2022/03/20 03:48:21;;;;;;;;;;;;;;;18.12;52.21;103497.84;5020695;28;1979;-36
2022/03/20 03:50:49;;;;;;;;;;;;;;;18.08;52.13;103507.84;5026642;28;1192;-36
2022/03/20 03:53:19;;;;;;;;;;;;;;;18.03;52.65;103509.81;5035865;28;1166;-36
2022/03/20 03:55:45;;;;;;;;;;;;;;;18.04;52.50;103505.31;5025092;28;1560;-36
2022/03/20 03:58:16;;;;;;;;;;;;;;;18.13;52.66;103510.31;5023130;28;1562;-37
2022/03/20 04:00:44;;;;;;;;;;;;;;;18.20;52.88;103511.78;5028644;28;1495;-36
2022/03/20 04:03:14;;;;;;;;;;;;;;;18.19;53.18;103504.72;5023992;28;1555;-36
2022/03/20 04:05:41;;;;;;;;;;;;;;;18.23;52.98;103506.31;5030489;28;1853;-36
2022/03/20 04:08:16;;;;;;;;;;;;;;;18.24;53.14;103502.72;5030495;28;1146;-37
2022/03/20 04:10:44;;;;;;;;;;;;;;;18.25;53.05;103509.81;5028188;28;1965;-36
2022/03/20 04:13:11;;;;;;;;;;;;;;;18.21;53.07;103508.19;5023162;28;1647;-36
2022/03/20 04:15:38;;;;;;;;;;;;;;;18.22;53.26;103504.59;5023832;28;1498;-36
2022/03/20 04:18:08;;;;;;;;;;;;;;;18.19;53.52;103502.03;5021841;28;1279;-36
2022/03/20 04:20:40;;;;;;;;;;;;;;;18.20;53.39;103498.41;5024741;28;1672;-36
2022/03/20 04:25:52;;;;;;;;;;;;;;;18.16;53.07;103518.22;5033316;28;1899;-37
2022/03/20 04:28:19;;;;;;;;;;;;;;;18.12;53.04;103516.59;5025064;28;1783;-36
2022/03/20 04:30:49;;;;;;;;;;;;;;;18.11;52.35;103517.53;5023967;28;1906;-37
2022/03/20 04:33:19;;;;;;;;;;;;;;;18.00;52.75;103509.06;5023292;28;1811;-37
2022/03/20 04:35:51;;;;;;;;;;;;;;;18.04;52.74;103521.38;5031526;28;1758;-37
2022/03/20 04:38:21;;;;;;;;;;;;;;;18.00;52.60;103525.13;5015602;28;949;-36
2022/03/20 04:40:49;;;;;;;;;;;;;;;18.00;52.46;103533.16;5030491;28;1631;-36
2022/03/20 04:43:17;;;;;;;;;;;;;;;17.98;52.97;103532.34;5022224;28;1627;-35
2022/03/20 04:45:45;;;;;;;;;;;;;;;17.98;53.04;103527.00;5026446;28;1829;-36
2022/03/20 04:59:16;;;;;;;;;;;;;;;17.96;53.16;103536.91;5031925;28;1974;-36
2022/03/20 05:01:42;;;;;;;;;;;;;;;17.97;53.75;103538.66;5024075;28;1510;-36
2022/03/20 05:04:11;;;;;;;;;;;;;;;17.94;53.51;103541.44;5023690;28;1167;-36
2022/03/20 05:06:41;;;;;;;;;;;;;;;17.98;53.06;103543.06;5018564;28;1287;-36
2022/03/20 05:14:37;;;;;;;;;;;;;;;18.59;52.24;103540.53;5025570;28;1768;-36
2022/03/20 05:17:07;;;;;;;;;;;;;;;19.01;50.76;103550.38;5028565;28;1823;-36
2022/03/20 05:19:34;;;;;;;;;;;;;;;19.30;50.07;103539.25;5028516;28;1994;-36
2022/03/20 05:22:06;;;;;;;;;;;;;;;19.31;50.32;103536.53;5026796;28;1707;-36
2022/03/20 05:24:35;;;;;;;;;;;;;;;19.45;50.36;103552.00;5026447;28;1694;-36
2022/03/20 05:27:02;;;;;;;;;;;;;;;19.61;50.35;103547.66;5023603;28;1169;-36
2022/03/20 05:29:31;;;;;;;;;;;;;;;19.52;50.67;103547.19;5019477;28;1919;-36
2022/03/20 05:31:58;;;;;;;;;;;;;;;19.41;50.90;103548.56;5019245;28;1895;-36
2022/03/20 05:34:25;;;;;;;;;;;;;;;19.41;50.27;103550.38;5020272;28;1355;-36
2022/03/20 05:36:52;;;;;;;;;;;;;;;19.41;50.37;103556.63;5021039;28;1950;-36
2022/03/20 05:39:24;;;;;;;;;;;;;;;19.28;50.76;103550.09;5031024;28;1894;-36
2022/03/20 05:41:51;;;;;;;;;;;;;;;19.22;50.24;103536.97;5015726;28;1556;-37
2022/03/20 05:44:33;;;;;;;;;;;;;;;19.25;50.54;103555.59;5031989;28;1584;-36
2022/03/20 05:47:14;;;;;;;;;;;;;;;19.12;50.68;103549.03;5029138;28;1620;-37
2022/03/20 05:49:43;;;;;;;;;;;;;;;19.19;50.35;103540.63;5024588;28;1906;-36
2022/03/20 05:52:11;;;;;;;;;;;;;;;19.01;51.01;103541.47;5022552;28;1159;-36
2022/03/20 05:54:42;;;;;;;;;;;;;;;18.90;51.11;103543.72;5022118;28;1816;-36
2022/03/20 05:59:54;;;;;;;;;;;;;;;18.68;51.41;103542.84;5027340;28;1542;-36
2022/03/20 06:02:22;;;;;;;;;;;;;;;18.66;51.88;103542.03;5024000;28;1683;-36
2022/03/20 06:04:49;;;;;;;;;;;;;;;18.60;51.89;103542.28;5016903;28;2153;-36
2022/03/20 06:07:18;;;;;;;;;;;;;;;18.60;51.59;103536.94;5033692;28;1007;-36
2022/03/20 06:09:50;;;;;;;;;;;;;;;18.67;51.98;103532.19;5026337;28;1906;-36
2022/03/20 06:12:20;;;;;;;;;;;;;;;18.65;50.91;103542.97;5029346;28;1814;-38
2022/03/20 06:14:50;;;;;;;;;;;;;;;18.68;50.56;103540.16;5019543;28;1726;-36
2022/03/20 06:17:20;;;;;;;;;;;;;;;18.78;50.18;103547.78;5024247;28;1481;-37
2022/03/20 06:19:49;;;;;;;;;;;;;;;18.84;50.32;103539.50;5024350;28;1381;-37
2022/03/20 06:22:15;;;;;;;;;;;;;;;18.81;50.61;103545.03;5024473;28;1123;-36
2022/03/20 06:24:45;;;;;;;;;;;;;;;18.78;50.78;103539.75;5030840;28;1751;-37
2022/03/20 06:27:25;;;;;;;;;;;;;;;18.76;51.65;103552.34;5019891;28;1975;-37
2022/03/20 06:29:55;;;;;;;;;;;;;;;18.78;51.78;103546.00;5019785;28;2015;-36
2022/03/20 06:32:27;;;;;;;;;;;;;;;18.80;51.25;103548.63;5024126;28;1585;-36
2022/03/20 06:34:55;;;;;;;;;;;;;;;18.80;51.97;103533.44;5023933;28;1619;-37
2022/03/20 06:37:25;;;;;;;;;;;;;;;18.89;51.55;103542.88;5024339;28;1163;-36
2022/03/20 06:39:51;;;;;;;;;;;;;;;18.90;51.48;103528.53;5029069;28;1651;-37
2022/03/20 06:42:27;;;;;;;;;;;;;;;18.92;51.30;103537.38;5029563;28;1578;-37
2022/03/20 06:45:01;;;;;;;;;;;;;;;18.97;51.57;103534.50;5031447;28;1755;-36
2022/03/20 06:47:32;;;;;;;;;;;;;;;19.25;51.90;103534.13;5023889;28;1784;-36
2022/03/20 06:50:06;;;;;;;;;;;;;;;19.56;50.99;103538.09;5028376;28;1980;-36
2022/03/20 06:52:34;;;;;;;;;;;;;;;19.67;51.26;103536.63;5031891;28;1437;-36
2022/03/20 06:55:02;;;;;;;;;;;;;;;19.75;51.93;103538.97;5031515;28;2071;-36
2022/03/20 06:57:42;;;;;;;;;;;;;;;19.70;52.17;103541.00;5022798;28;1287;-36
2022/03/20 07:00:10;;;;;;;;;;;;;;;19.66;51.71;103534.03;5030196;28;1734;-36
2022/03/20 07:02:37;;;;;;;;;;;;;;;19.52;51.92;103526.63;5031330;28;1612;-38
2022/03/20 07:05:07;;;;;;;;;;;;;;;19.74;50.38;103529.19;5032917;28;1380;-37
2022/03/20 07:07:38;;;;;;;;;;;;;;;19.69;51.00;103523.13;5036557;28;1540;-36
2022/03/20 07:10:07;;;;;;;;;;;;;;;19.56;50.93;103532.72;5034357;28;1906;-36
2022/03/20 07:12:39;;;;;;;;;;;;;;;19.73;51.38;103519.38;5036644;28;1891;-37
2022/03/20 07:15:14;;;;;;;;;;;;;;;19.52;53.01;103533.78;5036018;28;1752;-36
2022/03/20 07:17:43;;;;;;;;;;;;;;;19.52;53.57;103523.03;5029440;28;1501;-36
2022/03/20 07:20:10;;;;;;;;;;;;;;;19.54;54.10;103539.97;5033648;28;1680;-36
2022/03/20 07:22:39;;;;;;;;;;;;;;;19.43;54.77;103525.22;5029384;28;1544;-36
2022/03/20 07:30:34;;;;;;;;;;;;;;;19.50;59.01;103527.63;5032520;28;1981;-36
2022/03/20 07:33:01;;;;;;;;;;;;;;;19.47;59.46;103544.75;5029810;28;1593;-36
2022/03/20 07:35:30;;;;;;;;;;;;;;;19.59;59.35;103513.78;5030777;28;1946;-36
2022/03/20 07:37:57;;;;;;;;;;;;;;;19.56;58.12;103530.91;5034959;28;1711;-37
2022/03/20 07:40:23;;;;;;;;;;;;;;;19.60;57.65;103527.13;5030475;28;1937;-37
2022/03/20 07:43:03;;;;;;;;;;;;;;;19.45;58.67;103528.69;5030044;28;1759;-37
2022/03/20 07:45:29;;;;;;;;;;;;;;;19.41;58.28;103539.66;5030120;28;1885;-36
2022/03/20 07:47:58;;;;;;;;;;;;;;;19.34;57.80;103533.72;5029518;28;1303;-36
2022/03/20 07:50:28;;;;;;;;;;;;;;;19.28;58.75;103539.38;5032319;28;1910;-36
2022/03/20 07:52:56;;;;;;;;;;;;;;;19.29;57.62;103530.34;5036489;28;1530;-36
2022/03/20 07:55:27;;;;;;;;;;;;;;;19.31;58.59;103539.22;5031529;28;1331;-37
2022/03/20 07:57:57;;;;;;;;;;;;;;;19.25;57.43;103528.75;5036741;28;1419;-36
2022/03/20 08:00:26;;;;;;;;;;;;;;;19.35;57.51;103542.63;5032828;28;1539;-37
2022/03/20 08:02:53;;;;;;;;;;;;;;;19.31;58.05;103530.28;5032390;28;1750;-36
2022/03/20 08:05:20;;;;;;;;;;;;;;;19.28;57.71;103528.63;5032846;28;1509;-36
2022/03/20 08:07:47;;;;;;;;;;;;;;;19.28;58.56;103523.25;5032730;28;1580;-36
2022/03/20 08:10:14;;;;;;;;;;;;;;;19.33;57.33;103515.00;5032008;28;1906;-36
2022/03/20 08:12:43;;;;;;;;;;;;;;;19.37;57.70;103512.09;5028932;28;1680;-37
2022/03/20 08:15:16;;;;;;;;;;;;;;;19.32;58.60;103513.22;5034297;28;1429;-36
2022/03/20 08:17:48;;;;;;;;;;;;;;;19.22;58.42;103507.44;5033354;28;1780;-37
2022/03/20 08:20:15;;;;;;;;;;;;;;;19.28;58.97;103513.41;5025051;28;1746;-36
2022/03/20 08:22:42;;;;;;;;;;;;;;;19.31;58.55;103516.88;5035586;28;1011;-36
2022/03/20 08:25:14;;;;;;;;;;;;;;;19.28;59.03;103502.66;5040257;28;2002;-36
2022/03/20 08:27:44;;;;;;;;;;;;;;;19.25;58.35;103496.56;5040394;28;1954;-39
2022/03/20 08:32:55;;;;;;;;;;;;;;;19.17;56.28;103499.59;5031029;28;1704;-36
2022/03/20 08:35:25;;;;;;;;;;;;;;;19.32;55.67;103506.09;5033473;28;1913;-37
2022/03/20 08:37:56;;;;;;;;;;;;;;;19.31;56.73;103501.63;5022310;28;1072;-36
2022/03/20 08:40:31;;;;;;;;;;;;;;;19.28;55.72;103494.63;5027520;28;1875;-38
2022/03/20 08:43:09;;;;;;;;;;;;;;;19.32;55.94;103492.66;5025471;28;1631;-37
2022/03/20 08:45:41;;;;;;;;;;;;;;;19.31;56.86;103490.91;5022545;28;1715;-37
2022/03/20 08:48:11;;;;;;;;;;;;;;;19.27;55.99;103502.72;5027349;28;1643;-37
2022/03/20 08:50:44;;;;;;;;;;;;;;;19.22;56.85;103496.72;5027309;28;1969;-37
2022/03/20 08:53:16;;;;;;;;;;;;;;;19.13;57.20;103489.09;5026977;28;1238;-36
2022/03/20 08:55:44;;;;;;;;;;;;;;;19.18;56.63;103479.00;5032504;28;1782;-36
2022/03/20 08:58:12;;;;;;;;;;;;;;;19.10;57.10;103489.22;5032490;28;1747;-36
2022/03/20 09:00:51;;;;;;;;;;;;;;;19.00;58.92;103486.06;5034843;28;1651;-36
2022/03/20 09:03:21;;;;;;;;;;;;;;;19.03;58.64;103475.22;5036439;28;1527;-37
2022/03/20 09:05:48;;;;;;;;;;;;;;;19.11;58.36;103477.56;5033967;28;1631;-37
2022/03/20 09:08:14;;;;;;;;;;;;;;;19.04;59.12;103475.16;5040032;28;1710;-36
2022/03/20 09:10:41;;;;;;;;;;;;;;;18.96;59.30;103465.69;5036093;28;1902;-36
2022/03/20 09:13:11;;;;;;;;;;;;;;;18.95;59.09;103455.94;5044261;28;1413;-36
2022/03/20 09:21:08;;;;;;;;;;;;;;;19.01;59.82;103456.50;5034629;28;1613;-37
2022/03/20 09:23:38;;;;;;;;;;;;;;;18.91;59.46;103444.47;5038533;28;1343;-37
2022/03/20 09:26:10;;;;;;;;;;;;;;;18.84;59.63;103434.94;5035844;28;1618;-37
2022/03/20 09:28:41;;;;;;;;;;;;;;;18.82;59.83;103451.13;5029756;28;1564;-37
2022/03/20 09:31:11;;;;;;;;;;;;;;;18.79;60.09;103439.63;5035513;28;1979;-36
2022/03/20 09:33:49;;;;;;;;;;;;;;;18.73;59.38;103442.59;5028101;28;1552;-37
2022/03/20 09:36:17;;;;;;;;;;;;;;;18.72;59.13;103448.88;5020414;28;1738;-38
2022/03/20 09:38:43;;;;;;;;;;;;;;;18.72;59.22;103432.78;5027025;28;1687;-37
2022/03/20 09:41:11;;;;;;;;;;;;;;;18.68;59.23;103432.94;5028489;28;1036;-38
2022/03/20 09:43:53;;;;;;;;;;;;;;;18.68;58.76;103432.03;5028816;28;1235;-37
2022/03/20 09:46:26;;;;;;;;;;;;;;;18.60;58.92;103413.66;5015071;28;1257;-38
2022/03/20 09:49:06;;;;;;;;;;;;;;;18.59;58.48;103419.06;5024923;28;1774;-37
2022/03/20 09:51:34;;;;;;;;;;;;;;;18.57;59.46;103420.97;5017384;28;1959;-37
2022/03/20 09:54:08;;;;;;;;;;;;;;;18.59;59.03;103401.19;5014673;28;1620;-37
2022/03/20 09:59:18;;;;;;;;;;;;;;;18.59;58.82;103405.69;5026535;28;1649;-37
2022/03/20 10:01:44;;;;;;;;;;;;;;;18.54;58.56;103407.69;5019497;28;1518;-37
2022/03/20 10:04:21;;;;;;;;;;;;;;;18.56;58.49;103401.34;5022215;28;1676;-38
2022/03/20 10:06:49;;;;;;;;;;;;;;;18.55;58.88;103396.91;5034139;28;1193;-37
2022/03/20 10:09:23;;;;;;;;;;;;;;;18.67;58.91;103388.31;5028556;28;1924;-36
2022/03/20 10:11:53;;;;;;;;;;;;;;;18.60;59.46;103381.50;5024955;28;1906;-37
2022/03/20 10:14:30;;;;;;;;;;;;;;;18.57;59.25;103386.13;5019309;28;1823;-37
2022/03/20 10:17:27;;;;;;;;;;;;;;;18.56;59.11;103369.19;5037764;28;1530;-37
2022/03/20 10:20:21;;;;;;;;;;;;;;;18.54;59.27;103376.38;5021648;28;1448;-36
2022/03/20 10:22:48;;;;;;;;;;;;;;;18.56;59.09;103373.66;5013417;28;1250;-36
2022/03/20 10:25:21;;;;;;;;;;;;;;;18.53;58.75;103377.34;5018931;28;1936;-37
2022/03/20 10:28:00;;;;;;;;;;;;;;;18.55;58.88;103363.88;5027320;28;1638;-37
2022/03/20 10:30:29;;;;;;;;;;;;;;;18.49;59.46;103365.88;5025532;28;1968;-37
2022/03/20 10:32:58;;;;;;;;;;;;;;;18.49;59.38;103371.25;5021722;28;1975;-37
2022/03/20 10:35:28;;;;;;;;;;;;;;;18.54;59.09;103346.03;5026060;28;1720;-36
2022/03/20 10:37:56;;;;;;;;;;;;;;;18.60;59.92;103356.47;5037688;28;1063;-36
2022/03/20 10:40:24;;;;;;;;;;;;;;;18.60;59.56;103343.97;5030643;28;1865;-36
2022/03/20 10:43:08;;;;;;;;;;;;;;;18.63;59.50;103359.03;5030423;28;1710;-36
2022/03/20 10:45:49;;;;;;;;;;;;;;;18.61;59.62;103356.41;5027490;28;1695;-37
2022/03/20 10:48:32;;;;;;;;;;;;;;;18.68;59.71;103346.28;5023516;28;1906;-37
2022/03/20 10:51:06;;;;;;;;;;;;;;;18.63;60.04;103349.19;5025607;28;2093;-37
2022/03/20 10:53:40;;;;;;;;;;;;;;;18.58;59.64;103335.13;5020581;28;11527;-37
2022/03/20 10:56:11;;;;;;;;;;;;;;;18.55;60.25;103350.47;5011662;28;1516;-36
2022/03/20 10:58:39;;;;;;;;;;;;;;;18.54;60.17;103338.88;5010373;28;1063;-37
2022/03/20 11:01:07;;;;;;;;;;;;;;;18.51;60.74;103347.06;5005548;28;1930;-36
2022/03/20 11:03:35;;;;;;;;;;;;;;;18.49;60.69;103324.81;5007281;28;1701;-37
2022/03/20 11:06:05;;;;;;;;;;;;;;;18.57;60.53;103311.94;5004298;28;1985;-37
2022/03/20 11:08:34;;;;;;;;;;;;;;;18.53;60.27;103320.22;4997656;28;1764;-36
2022/03/20 11:11:01;;;;;;;;;;;;;;;18.45;61.18;103320.56;5009018;28;1910;-36
2022/03/20 11:16:10;;;;;;;;;;;;;;;18.47;60.14;103316.00;5004916;28;2447;-37
2022/03/20 11:18:46;;;;;;;;;;;;;;;18.46;60.83;103303.53;5004228;28;1475;-37
2022/03/20 11:21:24;;;;;;;;;;;;;;;18.43;60.67;103304.53;5000549;28;1988;-37
2022/03/20 11:23:52;;;;;;;;;;;;;;;18.42;60.61;103293.88;4998702;28;1666;-36
2022/03/20 11:26:21;;;;;;;;;;;;;;;18.40;60.66;103307.38;5011692;28;1933;-36
2022/03/20 11:28:54;;;;;;;;;;;;;;;18.37;60.68;103298.59;5001249;28;1116;-37
2022/03/20 11:31:21;;;;;;;;;;;;;;;18.42;60.50;103297.47;4976087;28;12171;-37
2022/03/20 11:33:49;;;;;;;;;;;;;;;18.45;61.02;103291.94;5012261;28;2003;-37
2022/03/20 11:36:21;;;;;;;;;;;;;;;18.44;60.78;103290.22;5012927;28;1786;-37
2022/03/20 11:39:06;;;;;;;;;;;;;;;18.44;61.03;103289.31;5015650;28;1712;-36
2022/03/20 11:41:33;;;;;;;;;;;;;;;18.43;61.08;103259.00;4998597;28;1950;-37
2022/03/20 11:44:20;;;;;;;;;;;;;;;18.40;60.70;103266.28;5012260;28;1635;-37
2022/03/20 11:47:09;;;;;;;;;;;;;;;18.43;60.60;103282.25;5011741;28;1588;-37
2022/03/20 11:49:39;;;;;;;;;;;;;;;18.43;60.90;103266.16;5010956;28;1434;-37
2022/03/20 11:52:14;;;;;;;;;;;;;;;18.45;60.36;103264.28;5002950;28;1988;-36
2022/03/20 11:54:57;;;;;;;;;;;;;;;18.46;60.39;103258.88;5013867;28;1600;-37
2022/03/20 11:57:45;;;;;;;;;;;;;;;18.46;60.50;103250.81;5004743;28;1886;-37
2022/03/20 12:00:16;;;;;;;;;;;;;;;18.48;60.28;103251.63;5012850;28;1788;-36
2022/03/20 12:02:52;;;;;;;;;;;;;;;18.44;60.52;103235.75;5000990;28;1425;-36
2022/03/20 12:05:27;;;;;;;;;;;;;;;18.39;60.56;103227.06;5005231;28;1614;-37
2022/03/20 12:08:09;;;;;;;;;;;;;;;18.42;60.36;103237.63;5015867;28;1427;-37
2022/03/20 12:10:53;;;;;;;;;;;;;;;18.38;60.78;103214.59;4999893;28;1987;-36
2022/03/20 12:13:38;;;;;;;;;;;;;;;18.44;60.33;103230.38;5003283;28;1613;-37
2022/03/20 12:16:05;;;;;;;;;;;;;;;18.45;60.19;103242.84;5000018;28;1368;-37
2022/03/20 12:18:50;;;;;;;;;;;;;;;18.39;60.56;103222.56;5012838;28;1922;-37
2022/03/20 12:21:17;;;;;;;;;;;;;;;18.43;60.45;103223.31;5003302;28;1759;-36
2022/03/20 12:23:45;;;;;;;;;;;;;;;18.44;59.94;103236.63;4996934;28;2036;-36
2022/03/20 12:26:44;;;;;;;;;;;;;;;18.40;60.49;103234.16;5006907;28;1414;-40
2022/03/20 12:29:32;;;;;;;;;;;;;;;18.43;59.90;103245.59;4996767;28;1553;-37
2022/03/20 12:32:00;;;;;;;;;;;;;;;18.43;59.63;103224.16;5013995;28;1948;-37
2022/03/20 12:34:28;;;;;;;;;;;;;;;18.41;60.49;103219.81;4995582;28;1100;-37
2022/03/20 12:36:57;;;;;;;;;;;;;;;18.40;59.96;103224.31;4999262;28;1952;-37
2022/03/20 12:39:46;;;;;;;;;;;;;;;18.43;59.51;103217.94;5011474;28;1561;-36
2022/03/20 12:42:20;;;;;;;;;;;;;;;18.43;59.84;103207.22;5001067;28;1849;-37
2022/03/20 12:44:48;;;;;;;;;;;;;;;18.40;60.00;103212.72;5006851;28;1633;-37
2022/03/20 12:47:16;;;;;;;;;;;;;;;18.37;60.11;103211.06;5008659;28;1821;-37
2022/03/20 12:49:59;;;;;;;;;;;;;;;18.38;59.78;103204.78;5009910;28;1631;-37
2022/03/20 12:52:36;;;;;;;;;;;;;;;18.37;60.26;103213.72;5003685;28;1977;-37
2022/03/20 12:55:05;;;;;;;;;;;;;;;18.32;60.21;103193.47;5000092;28;1963;-36
2022/03/20 12:57:40;;;;;;;;;;;;;;;18.31;60.08;103189.91;5003039;28;1949;-36
2022/03/20 13:00:09;;;;;;;;;;;;;;;18.39;59.35;103201.13;5007031;28;1816;-36
2022/03/20 13:02:36;;;;;;;;;;;;;;;18.37;59.67;103202.16;5012062;28;1618;-37
2022/03/20 13:05:11;;;;;;;;;;;;;;;18.35;59.94;103187.97;5012125;28;1321;-36
2022/03/20 13:07:41;;;;;;;;;;;;;;;18.36;59.78;103211.97;5014263;28;1156;-36
2022/03/20 13:10:11;;;;;;;;;;;;;;;18.36;59.95;103192.38;5008268;28;1525;-37
2022/03/20 13:12:58;;;;;;;;;;;;;;;18.34;59.59;103202.28;5007734;28;1899;-37
2022/03/20 13:15:29;;;;;;;;;;;;;;;18.31;59.72;103194.41;5004489;28;1697;-36
2022/03/20 13:18:02;;;;;;;;;;;;;;;18.26;59.94;103182.09;4996799;28;1694;-37
2022/03/20 13:20:29;;;;;;;;;;;;;;;18.23;59.82;103184.91;4998673;28;1581;-37
2022/03/20 13:22:56;;;;;;;;;;;;;;;18.24;59.54;103181.31;5002936;28;1846;-36
2022/03/20 13:25:32;;;;;;;;;;;;;;;18.23;59.05;103181.38;5012241;28;1819;-35
2022/03/20 13:28:06;;;;;;;;;;;;;;;18.21;59.19;103176.09;5010255;28;1954;-36
2022/03/20 13:31:03;;;;;;;;;;;;;;;18.24;59.61;103178.63;5010067;28;1931;-36
2022/03/20 13:33:55;;;;;;;;;;;;;;;18.22;59.83;103176.94;5007845;28;1968;-36
2022/03/20 13:36:29;;;;;;;;;;;;;;;18.28;60.03;103172.19;4999348;28;1612;-36
2022/03/20 13:39:00;;;;;;;;;;;;;;;18.26;59.65;103184.78;4999904;28;1955;-37
2022/03/20 13:41:29;;;;;;;;;;;;;;;18.31;60.23;103175.66;5006477;28;1797;-35
2022/03/20 13:44:01;;;;;;;;;;;;;;;18.35;61.06;103177.25;5005308;28;1792;-35
2022/03/20 13:46:32;;;;;;;;;;;;;;;18.38;60.92;103152.97;5008710;28;1835;-36
2022/03/20 13:49:01;;;;;;;;;;;;;;;18.32;61.15;103153.28;5013483;28;1953;-37
2022/03/20 13:51:31;;;;;;;;;;;;;;;18.32;61.22;103148.78;5013095;28;1902;-37